createdAt,value
2022-08-09T00:02:34.948Z,1.10
2022-08-09T00:07:44.842Z,1.23
2022-08-09T00:12:52.559Z,1.30
2022-08-09T00:18:05.105Z,1.42
2022-08-09T00:23:56.287Z,1.30
2022-08-09T00:28:37.228Z,1.20
2022-08-09T00:33:49.157Z,1.25
2022-08-09T00:38:54.759Z,1.17
2022-08-09T00:44:10.358Z,1.27
2022-08-09T00:49:21.905Z,1.40
2022-08-09T00:54:35.142Z,1.23
2022-08-09T00:59:40.916Z,1.60
2022-08-09T01:04:58.271Z,1.70
2022-08-09T01:10:06.011Z,1.40
2022-08-09T01:15:16.962Z,1.10
2022-08-09T01:20:30.121Z,1.60
2022-08-09T01:25:53.170Z,1.50
2022-08-09T01:31:02.010Z,1.50
2022-08-09T01:36:13.856Z,1.20
2022-08-09T01:41:25.752Z,1.50
2022-08-09T01:46:33.150Z,1.60
2022-08-09T01:51:37.288Z,1.33
2022-08-09T01:56:51.711Z,1.50
2022-08-09T02:02:00.839Z,1.48
2022-08-09T02:07:18.037Z,1.67
2022-08-09T02:12:39.336Z,1.80
2022-08-09T02:18:00.573Z,1.65
2022-08-09T02:23:13.275Z,1.60
2022-08-09T02:28:24.064Z,1.70
2022-08-09T02:33:58.395Z,1.92
2022-08-09T02:38:59.611Z,2.00
2022-08-09T02:44:13.784Z,1.85
2022-08-09T02:49:38.944Z,2.00
2022-08-09T02:54:53.988Z,1.65
2022-08-09T03:00:20.550Z,2.00
2022-08-09T03:05:23.707Z,1.70
2022-08-09T03:10:28.494Z,2.00
2022-08-09T03:15:40.556Z,1.90
2022-08-09T03:20:59.661Z,2.10
2022-08-09T03:26:03.760Z,2.00
2022-08-09T03:31:10.523Z,2.30
2022-08-09T03:36:27.107Z,2.40
2022-08-09T03:41:45.926Z,1.90
2022-08-09T03:46:51.882Z,2.15
2022-08-09T03:52:03.721Z,2.50
2022-08-09T03:57:18.369Z,2.25
2022-08-09T04:02:26.733Z,2.40
2022-08-09T04:07:47.283Z,2.10
2022-08-09T04:12:55.961Z,2.33
2022-08-09T04:18:00.518Z,2.47
2022-08-09T04:23:10.042Z,2.42
2022-08-09T04:28:34.293Z,2.42
2022-08-09T04:33:51.515Z,2.58
2022-08-09T04:38:59.804Z,2.40
2022-08-09T04:44:05.931Z,2.45
2022-08-09T04:49:10.272Z,2.10
2022-08-09T04:54:20.080Z,2.63
2022-08-09T04:59:23.135Z,2.50
2022-08-09T05:04:30.969Z,2.35
2022-08-09T05:09:48.791Z,2.40
2022-08-09T05:14:52.814Z,2.30
2022-08-09T05:19:57.044Z,2.58
2022-08-09T05:25:02.411Z,2.90
2022-08-09T05:30:06.679Z,2.72
2022-08-09T05:35:10.415Z,2.60
2022-08-09T05:40:15.142Z,2.40
2022-08-09T05:45:19.208Z,2.60
2022-08-09T05:50:50.661Z,2.38
2022-08-09T05:55:58.782Z,2.80
2022-08-09T06:01:01.671Z,2.65
2022-08-09T06:06:05.959Z,2.45
2022-08-09T06:11:16.447Z,3.00
2022-08-09T06:16:19.673Z,3.33
2022-08-09T06:21:22.502Z,2.65
2022-08-09T06:26:28.438Z,2.50
2022-08-09T06:31:40.250Z,2.70
2022-08-09T06:36:59.419Z,2.38
2022-08-09T06:42:08.648Z,2.47
2022-08-09T06:47:12.534Z,2.78
2022-08-09T06:52:17.814Z,2.45
2022-08-09T06:57:42.460Z,2.67
2022-08-09T07:02:45.873Z,2.67
2022-08-09T07:08:00.742Z,2.20
2022-08-09T07:13:27.407Z,2.40
2022-08-09T07:18:28.966Z,2.37
2022-08-09T07:23:36.152Z,2.58
2022-08-09T07:29:08.257Z,2.40
2022-08-09T07:34:03.385Z,2.20
2022-08-09T07:39:11.648Z,2.15
2022-08-09T07:44:16.201Z,2.25
2022-08-09T07:49:26.828Z,2.60
2022-08-09T07:54:31.610Z,2.27
2022-08-09T07:59:51.993Z,2.50
2022-08-09T08:04:58.652Z,2.20
2022-08-09T08:10:07.954Z,2.15
2022-08-09T08:15:16.856Z,2.70
2022-08-09T08:20:28.635Z,2.22
2022-08-09T08:25:44.427Z,2.20
2022-08-09T08:30:50.948Z,2.15
2022-08-09T08:41:06.841Z,2.40
2022-08-09T08:46:31.975Z,2.13
2022-08-09T08:51:41.864Z,2.13
2022-08-09T08:57:04.067Z,1.92
2022-08-09T09:02:31.130Z,2.20
2022-08-09T09:07:36.912Z,2.40
2022-08-09T09:12:41.122Z,2.22
2022-08-09T09:17:49.213Z,1.90
2022-08-09T09:23:01.887Z,2.25
2022-08-09T09:28:10.732Z,2.28
2022-08-09T09:33:17.900Z,2.13
2022-08-09T09:38:27.868Z,2.03
2022-08-09T09:43:41.253Z,2.33
2022-08-09T09:49:06.453Z,1.90
2022-08-09T09:54:21.167Z,2.20
2022-08-09T09:59:35.803Z,2.28
2022-08-09T10:04:41.049Z,2.00
2022-08-09T10:09:49.049Z,2.15
2022-08-09T10:15:07.646Z,1.90
2022-08-09T10:20:35.639Z,2.25
2022-08-09T10:26:07.840Z,2.00
2022-08-09T10:36:38.450Z,2.00
2022-08-09T10:41:42.145Z,2.17
2022-08-09T10:47:03.819Z,2.10
2022-08-09T10:52:30.602Z,1.70
2022-08-09T10:57:37.600Z,1.80
2022-08-09T11:03:11.444Z,1.90
2022-08-09T11:08:43.573Z,2.10
2022-08-09T11:14:27.990Z,1.90
2022-08-09T11:20:11.184Z,1.90
2022-08-09T11:25:19.027Z,1.70
2022-08-09T11:30:38.214Z,1.65
2022-08-09T11:35:49.516Z,1.92
2022-08-09T11:40:55.931Z,1.90
2022-08-09T11:46:00.242Z,1.80
2022-08-09T11:52:48.877Z,1.90
2022-08-09T11:56:41.961Z,1.88
2022-08-09T12:02:18.409Z,1.70
2022-08-09T12:07:14.958Z,2.07
2022-08-09T12:12:28.647Z,1.60
2022-08-09T12:17:42.286Z,1.60
2022-08-09T12:22:50.629Z,1.75
2022-08-09T12:29:15.409Z,1.55
2022-08-09T12:33:59.386Z,1.65
2022-08-09T12:39:01.630Z,1.45
2022-08-09T12:44:09.657Z,1.45
2022-08-09T12:49:13.742Z,1.58
2022-08-09T12:54:20.968Z,1.65
2022-08-09T12:59:57.405Z,1.48
2022-08-09T13:05:02.462Z,1.30
2022-08-09T13:10:07.739Z,1.50
2022-08-09T13:15:11.789Z,1.48
2022-08-09T13:20:23.549Z,1.27
2022-08-09T13:25:42.276Z,1.20
2022-08-09T13:30:51.001Z,1.20
2022-08-09T13:36:37.871Z,1.30
2022-08-09T13:41:58.292Z,1.17
2022-08-09T13:47:29.675Z,1.38
2022-08-09T13:52:19.244Z,1.40
2022-08-09T13:57:36.725Z,1.20
2022-08-09T14:03:04.373Z,1.23
2022-08-09T14:08:07.156Z,1.10
2022-08-09T14:13:28.077Z,1.10
2022-08-09T14:18:37.595Z,1.23
2022-08-09T14:23:55.127Z,1.30
2022-08-09T14:29:03.371Z,1.20
2022-08-09T14:34:08.121Z,0.95
2022-08-09T14:39:11.205Z,0.90
2022-08-09T14:44:15.451Z,1.20
2022-08-09T14:49:18.465Z,1.05
2022-08-09T14:54:27.889Z,0.70
2022-08-09T14:59:32.694Z,0.80
2022-08-09T15:04:42.303Z,0.80
2022-08-09T15:10:07.174Z,0.90
2022-08-09T15:15:11.546Z,0.80
2022-08-09T15:21:53.790Z,0.80
2022-08-09T15:25:41.273Z,0.80
2022-08-09T15:30:57.712Z,0.90
2022-08-09T15:36:07.018Z,0.70
2022-08-09T15:41:09.963Z,0.90
2022-08-09T15:46:33.597Z,0.70
2022-08-09T15:52:02.828Z,0.73
2022-08-09T15:56:59.703Z,0.82
2022-08-09T16:02:05.596Z,0.80
2022-08-09T16:07:10.821Z,0.60
2022-08-09T16:12:13.743Z,0.50
2022-08-09T16:17:19.940Z,0.68
2022-08-09T16:22:24.968Z,0.70
2022-08-09T16:27:31.850Z,0.60
2022-08-09T16:32:57.872Z,0.60
2022-08-09T16:38:01.131Z,0.70
2022-08-09T16:43:04.457Z,0.85
2022-08-09T16:48:41.364Z,0.55
2022-08-09T16:53:34.346Z,0.60
2022-08-09T16:58:37.553Z,0.70
2022-08-09T17:03:44.185Z,0.55
2022-08-09T17:09:03.084Z,0.75
2022-08-09T17:14:15.929Z,0.60
2022-08-09T17:19:47.687Z,0.68
2022-08-09T17:24:55.789Z,0.80
2022-08-09T17:30:12.769Z,3.60
2022-08-09T17:35:18.769Z,1.00
2022-08-09T17:40:21.989Z,1.88
2022-08-09T17:46:02.195Z,1.65
2022-08-09T17:51:08.678Z,1.00
2022-08-09T17:56:13.510Z,0.80
2022-08-09T18:01:22.441Z,0.80
2022-08-09T18:06:32.382Z,0.98
2022-08-09T18:12:05.690Z,1.13
2022-08-09T18:17:01.673Z,1.00
2022-08-09T18:22:06.253Z,1.35
2022-08-09T18:27:59.841Z,1.33
2022-08-09T18:32:39.269Z,1.13
2022-08-09T18:37:48.955Z,1.30
2022-08-09T18:42:57.584Z,1.02
2022-08-09T18:48:00.421Z,1.17
2022-08-09T18:53:04.759Z,1.10
2022-08-09T18:58:31.800Z,1.50
2022-08-09T19:03:54.709Z,1.50
2022-08-09T19:09:03.124Z,1.30
2022-08-09T19:14:06.603Z,4.93
2022-08-09T19:19:19.271Z,2.85
2022-08-09T19:24:32.918Z,2.35
2022-08-09T19:35:13.306Z,1.30
2022-08-09T19:40:19.557Z,1.48
2022-08-09T19:45:22.667Z,1.58
2022-08-09T19:50:49.375Z,1.80
2022-08-09T19:56:05.949Z,1.45
2022-08-09T20:01:11.479Z,2.58
2022-08-09T20:06:23.517Z,1.20
2022-08-09T20:11:45.176Z,1.30
2022-08-09T20:16:55.031Z,1.50
2022-08-09T20:22:00.072Z,1.30
2022-08-09T20:27:08.609Z,1.25
2022-08-09T20:32:28.840Z,2.75
2022-08-09T20:43:12.256Z,1.25
2022-08-09T20:48:22.158Z,2.03
2022-08-09T20:53:36.434Z,1.20
2022-08-09T20:58:43.550Z,1.20
2022-08-09T21:04:14.139Z,1.33
2022-08-09T21:09:13.497Z,1.23
2022-08-09T21:14:18.655Z,1.17
2022-08-09T21:20:17.757Z,1.38
2022-08-09T21:24:58.875Z,3.15
2022-08-09T21:30:04.191Z,1.20
2022-08-09T21:35:07.836Z,1.20
2022-08-09T21:40:15.432Z,1.15
2022-08-09T21:45:38.808Z,1.30
2022-08-09T21:50:46.684Z,1.20
2022-08-09T21:55:54.213Z,1.25
2022-08-09T22:00:58.357Z,1.23
2022-08-09T22:11:49.303Z,1.38
2022-08-09T22:16:27.994Z,1.17
2022-08-09T22:21:50.420Z,1.30
2022-08-09T22:26:54.089Z,1.00
2022-08-09T22:31:58.219Z,1.30
2022-08-09T22:42:16.087Z,1.10
2022-08-09T22:48:11.235Z,1.42
2022-08-09T22:52:49.122Z,1.20
2022-08-09T22:57:59.752Z,1.20
2022-08-09T23:03:04.658Z,1.10
2022-08-09T23:08:33.393Z,1.17
2022-08-09T23:13:37.074Z,1.30
2022-08-09T23:18:41.821Z,1.23
2022-08-09T23:24:04.169Z,1.20
2022-08-09T23:29:09.914Z,1.00
2022-08-09T23:34:14.164Z,1.00
2022-08-09T23:39:17.558Z,0.88
2022-08-09T23:44:20.396Z,0.95
2022-08-09T23:49:25.045Z,1.10
2022-08-09T23:54:28.033Z,1.10
2022-08-09T23:59:51.275Z,1.35
